Weather History for Storm Lake, IA

Change the Weather History Date:

Monday, July 1, 2013

  Actual Average Record
Temperature  
Mean Temperature 70 °F -  
Max Temperature 82 °F 81 °F 94 °F (2011)
Min Temperature 57 °F 62 °F 51 °F (2001)
Cooling Degree Days 4    
Growing Degree Days 20 (Base 50)    
Moisture  
Dew Point 51 °F    
Average Humidity 52    
Maximum Humidity 82    
Minimum Humidity 26    
Precipitation  
Precipitation 0.00 in - - ()
Sea Level Pressure  
Sea Level Pressure 30.16 in    
Wind  
Wind Speed 8 mph (NNE)    
Max Wind Speed 17 mph    
Max Gust Speed 26 mph    
Visibility 10 miles    
Events      
Averages and records for this station are not official NWS values.
T = Trace of Precipitation, MM = Missing Value Source: NWS Daily Summary

Daily Weather History Graph

Daily Weather History Graph

Search for Another Location

Airport:

Trip Planner

Search our weather history database for the weather conditions in past years. The results will help you decide how hot, cold, wet, or windy it might be!

Date:

Astronomy

Jul. 01, 2013 Rise Set
Actual Time 5:47 AM CDT 9:02 PM CDT
Civil Twilight 5:12 AM CDT 9:37 PM CDT
Nautical Twilight 4:27 AM CDT 10:21 PM CDT
Astronomical Twilight 3:32 AM CDT 11:16 PM CDT
Moon 1:22 AM CDT (7/1) 3:14 PM CDT (7/1)
Length of Visible Light 16h 24m
Length of Day
15h 15m
Waning Crescent, 35% of the Moon is Illuminated
Jul 1
Waning Crescent
Jul 8
New
Jul 15
First Quarter
Jul 22
Full
Jul 29
Last Quarter

Hourly Weather History & Observations

Time (CDT) Temp. Dew Point Humidity Pressure Visibility Wind Dir Wind Speed Gust Speed Precip Events Conditions
12:15 AM 64.4 °F 50.0 °F 59% 30.14 in 10.0 mi NNE 4.6 mph - N/A   Clear
12:35 AM 62.6 °F 48.2 °F 59% 30.14 in 10.0 mi North 5.8 mph - N/A   Clear
12:55 AM 60.8 °F 48.2 °F 63% 30.14 in 10.0 mi North 5.8 mph - N/A   Clear
1:15 AM 59.0 °F 48.2 °F 67% 30.14 in 10.0 mi North 8.1 mph - N/A   Clear
1:35 AM 59.0 °F 48.2 °F 67% 30.14 in 10.0 mi North 6.9 mph - N/A   Clear
1:55 AM 59.0 °F 48.2 °F 67% 30.14 in 10.0 mi North 6.9 mph - N/A   Clear
2:15 AM 59.0 °F 48.2 °F 67% 30.15 in 10.0 mi North 6.9 mph - N/A   Clear
2:35 AM 59.0 °F 48.2 °F 67% 30.15 in 10.0 mi North 6.9 mph - N/A   Clear
2:55 AM 59.0 °F 48.2 °F 67% 30.15 in 10.0 mi North 6.9 mph - N/A   Clear
3:15 AM 57.2 °F 48.2 °F 72% 30.15 in 10.0 mi North 6.9 mph - N/A   Clear
3:35 AM 57.2 °F 50.0 °F 77% 30.15 in 10.0 mi North 6.9 mph - N/A   Clear
3:55 AM 57.2 °F 50.0 °F 77% 30.15 in 10.0 mi North 6.9 mph - N/A   Clear
4:15 AM 57.2 °F 50.0 °F 77% 30.15 in 10.0 mi North 8.1 mph - N/A   Clear
4:35 AM 57.2 °F 50.0 °F 77% 30.16 in 10.0 mi North 6.9 mph - N/A   Clear
4:55 AM 57.2 °F 51.8 °F 82% 30.16 in 10.0 mi North 8.1 mph - N/A   Clear
5:15 AM 57.2 °F 51.8 °F 82% 30.16 in 10.0 mi North 6.9 mph - N/A   Clear
5:35 AM 57.2 °F 51.8 °F 82% 30.17 in 10.0 mi North 6.9 mph - N/A   Clear
5:55 AM 57.2 °F 51.8 °F 82% 30.17 in 10.0 mi North 8.1 mph - N/A   Clear
6:15 AM 57.2 °F 51.8 °F 82% 30.18 in 9.0 mi North 6.9 mph - N/A   Clear
6:35 AM 57.2 °F 51.8 °F 82% 30.18 in 9.0 mi North 6.9 mph - N/A   Clear
6:55 AM 59.0 °F 53.6 °F 82% 30.18 in 9.0 mi North 5.8 mph - N/A   Clear
7:15 AM 60.8 °F 53.6 °F 77% 30.18 in 9.0 mi North 5.8 mph - N/A   Clear
7:35 AM 62.6 °F 55.4 °F 77% 30.18 in 10.0 mi North 6.9 mph - N/A   Clear
7:55 AM 64.4 °F 55.4 °F 73% 30.19 in 9.0 mi North 8.1 mph - N/A   Clear
8:15 AM 68.0 °F 55.4 °F 64% 30.19 in 9.0 mi North 8.1 mph - N/A   Clear
8:35 AM 69.8 °F 55.4 °F 60% 30.19 in 10.0 mi North 9.2 mph - N/A   Clear
8:55 AM 71.6 °F 55.4 °F 57% 30.19 in 10.0 mi North 9.2 mph - N/A   Clear
9:15 AM 73.4 °F 55.4 °F 53% 30.19 in 10.0 mi North 10.4 mph - N/A   Clear
9:35 AM 73.4 °F 53.6 °F 50% 30.19 in 10.0 mi NNE 9.2 mph - N/A   Clear
9:55 AM 75.2 °F 53.6 °F 47% 30.19 in 10.0 mi NNE 12.7 mph - N/A   Clear
10:15 AM 77.0 °F 51.8 °F 41% 30.19 in 10.0 mi NNE 13.8 mph - N/A   Clear
10:35 AM 77.0 °F 51.8 °F 41% 30.19 in 10.0 mi NNE 15.0 mph - N/A   Clear
10:55 AM 78.8 °F 51.8 °F 39% 30.19 in 10.0 mi North 12.7 mph 18.4 mph N/A   Clear
11:15 AM 78.8 °F 51.8 °F 39% 30.19 in 10.0 mi NNE 16.1 mph 21.9 mph N/A   Clear
11:35 AM 78.8 °F 51.8 °F 39% 30.18 in 10.0 mi NNE 17.3 mph - N/A   Clear
11:55 AM 78.8 °F 48.2 °F 34% 30.18 in 10.0 mi NE 16.1 mph 26.5 mph N/A   Clear
12:15 PM 80.6 °F 44.6 °F 28% 30.18 in 10.0 mi NE 15.0 mph 23.0 mph N/A   Clear
12:35 PM 80.6 °F 44.6 °F 28% 30.18 in 10.0 mi NE 15.0 mph 20.7 mph N/A   Clear
12:55 PM 80.6 °F 48.2 °F 32% 30.17 in 10.0 mi ENE 10.4 mph 19.6 mph N/A   Clear
1:15 PM 80.6 °F 46.4 °F 30% 30.17 in 10.0 mi NE 15.0 mph - N/A   Clear
1:35 PM 80.6 °F 46.4 °F 30% 30.17 in 10.0 mi NE 12.7 mph 20.7 mph N/A   Clear
1:55 PM 80.6 °F 46.4 °F 30% 30.17 in 10.0 mi NE 12.7 mph 21.9 mph N/A   Clear
2:15 PM 82.4 °F 44.6 °F 26% 30.17 in 10.0 mi NE 11.5 mph 18.4 mph N/A   Clear
2:35 PM 82.4 °F 44.6 °F 26% 30.16 in 10.0 mi NE 11.5 mph 23.0 mph N/A   Clear
2:55 PM 82.4 °F 46.4 °F 28% 30.16 in 9.0 mi ENE 13.8 mph - N/A   Clear
3:15 PM 82.4 °F 46.4 °F 28% 30.15 in 9.0 mi NE 15.0 mph - N/A   Clear
3:35 PM 82.4 °F 44.6 °F 26% 30.15 in 9.0 mi NE 10.4 mph - N/A   Clear
3:55 PM 80.6 °F 46.4 °F 30% 30.15 in 9.0 mi NE 12.7 mph - N/A   Partly Cloudy
4:15 PM 82.4 °F 48.2 °F 30% 30.15 in 9.0 mi NE 11.5 mph - N/A   Partly Cloudy
4:35 PM 82.4 °F 46.4 °F 28% 30.15 in 9.0 mi NE 12.7 mph 19.6 mph N/A   Partly Cloudy
4:55 PM 80.6 °F 48.2 °F 32% 30.15 in 10.0 mi ENE 12.7 mph - N/A   Scattered Clouds
5:15 PM 82.4 °F 48.2 °F 30% 30.15 in 9.0 mi NE 8.1 mph - N/A   Partly Cloudy
5:35 PM 80.6 °F 48.2 °F 32% 30.15 in 9.0 mi NE 12.7 mph - N/A   Scattered Clouds
5:55 PM 78.8 °F 48.2 °F 34% 30.15 in 9.0 mi NE 10.4 mph - N/A   Scattered Clouds
6:15 PM 80.6 °F 48.2 °F 32% 30.14 in 9.0 mi NE 10.4 mph - N/A   Partly Cloudy
6:35 PM 80.6 °F 50.0 °F 34% 30.14 in 9.0 mi ENE 12.7 mph - N/A   Scattered Clouds
6:55 PM 80.6 °F 50.0 °F 34% 30.14 in 9.0 mi ENE 12.7 mph - N/A   Partly Cloudy
7:15 PM 78.8 °F 51.8 °F 39% 30.14 in 10.0 mi ENE 10.4 mph - N/A   Clear
7:35 PM 78.8 °F 51.8 °F 39% 30.14 in 9.0 mi ENE 8.1 mph - N/A   Clear
7:55 PM 77.0 °F 53.6 °F 44% 30.14 in 9.0 mi NE 5.8 mph - N/A   Clear
8:15 PM 75.2 °F 53.6 °F 47% 30.15 in 9.0 mi NE 6.9 mph - N/A   Clear
8:35 PM 73.4 °F 53.6 °F 50% 30.14 in 9.0 mi NE 5.8 mph - N/A   Clear
8:55 PM 73.4 °F 53.6 °F 50% 30.14 in 9.0 mi NE 5.8 mph - N/A   Clear
9:15 PM 73.4 °F 55.4 °F 53% 30.14 in 9.0 mi NE 4.6 mph - N/A   Clear
9:35 PM 71.6 °F 55.4 °F 57% 30.14 in 10.0 mi ENE 3.5 mph - N/A   Partly Cloudy
9:55 PM 71.6 °F 53.6 °F 53% 30.14 in 10.0 mi ENE 4.6 mph - N/A   Partly Cloudy
10:15 PM 69.8 °F 55.4 °F 60% 30.15 in 10.0 mi Calm Calm - N/A   Partly Cloudy
10:35 PM 69.8 °F 53.6 °F 56% 30.15 in 10.0 mi Calm Calm - N/A   Scattered Clouds
10:55 PM 69.8 °F 51.8 °F 53% 30.15 in - NNE 3.5 mph - N/A   Scattered Clouds
11:15 PM 69.8 °F 53.6 °F 56% 30.15 in 10.0 mi North 3.5 mph - N/A   Scattered Clouds
11:35 PM 68.0 °F 53.6 °F 60% 30.16 in 10.0 mi East 3.5 mph - N/A   Partly Cloudy
11:55 PM 68.0 °F 53.6 °F 60% 30.15 in 10.0 mi East 4.6 mph - N/A   Mostly Cloudy